Sprague River, OR (97639)

2:25 AM PDT on July 29, 2016 (GMT -0700)
Soaring Eagles Ranch | | Change Station

Elev 4314 ft 42.58 °N, 121.74 °W | Updated 9 minutes ago

Clear
Clear
58.1 °F
Feels Like 58.1 °F
N
0.0
Wind Variable Wind from South

Today
High -- | Low -- °F
--% Chance of Precip.
Yesterday
High -- | Low -- °F
Precip. -- in
Pressure 29.91 in
Visibility 10.0 miles
Clouds Clear
Dew Point 46 °F
Humidity 63%
Rainfall 0.00 in
Snow Depth Not available.
5:55 AM 8:28 PM
Waning Crescent, 23% visible
METAR KLMT 290853Z AUTO 34008KT 10SM CLR 22/14 A3008 RMK AO2 SLP128 T02220139 58001
Pressure 29.91 in
Visibility 10.0 miles
Clouds Clear
Dew Point 46 °F
Humidity 63%
Rainfall 0.00 in
Snow Depth Not available.
5:55 AM 8:28 PM
Waning Crescent, 23% visible
METAR KLMT 290853Z AUTO 34008KT 10SM CLR 22/14 A3008 RMK AO2 SLP128 T02220139 58001

10-Day Weather Forecast

Almanac

Astronomy

Jul. 29, 2016 Rise Set
Actual Time
Civil Twilight
Nautical Twilight
Astronomical Twilight
Moon
Length of Visible Light
Length of Day
Tomorrow will be .
, % of the Moon is Illuminated

Today's Extremes

State Highs State Lows

Community

WunderPhotos

Upload Photos

1,928,300 photos uploaded!

WunderBlog® & News

Nearby

Air Quality

  Air Quality AQ Index Pollutant
Not available.

Snow Depth

Station Depth Elevation

Earthquake Activity

City Distance Mag. Time & Date
Minimum magnitude displayed is 2.5.

Coastal Water Temperatures

Place Temperature

Stations

Nearby Weather Stations

Station Location Temp. Windchill Dew Point Humidity Wind Precip. Elev Updated Type
                   

Watches & Warnings

There are currently no watches in effect.